00:06
Airports
History
Links
Donate
Help keep this website running!
PayPal
Bitcoin
This page is community maintained. The information is intended for PC simulator navigation or reference.
Always use approved charts for navigation.
CZUM
CHURCHILL FALLS
CHURCHILL FALLS (CZUM)
Newfoundland and Labrador, Canada
(U)
Lat/Lng:53° 33' 45.45" N / 64° 6' 21.37" W
53.562625 / -64.105935
Elevation:1442'ft / 440mMSL
ID / ICAO:CZUM
Runways:1
Longest:13-31
Asphalt 1,674m / 5,491ft
METAR23:00 GMT 2017-10-16
Altimeter: 29.81
Visibility: 9.0 statute miles
Wind: 5 knots (from 280°)
Temp: 0°c / 32°f
Humidity: %

METAR: CZUM 162300Z AUTO 28005KT 240V310 9SM OVC041 M00/M06 A2981 RMK SLP119

(Powered by phpweather)
Airport Radio Frequencies
AWOS: 122.55
CTAF: 123.5
Nearby VORs <50NM
Nearby NDBs
Runway 13 / 31
Dimensions:1673.7 x 45.7m 5491' x 150'ft
Surface:Asphalt
Edge Lights:Medium intensity
Runway 13 [A]Runway 31 [B]
Heading:104°TH 284°TH
Lat:
Lng:
53° 33' 52.26"N
64° 7' 5.44"W
53° 33' 38.64"N
64° 5' 37.29"W
ALS:MALSMALS
TDZ:Yes, lighted
User Notes and Comments
53° 33' 45.45" N / 64° 6' 21.37" W
Distance To
Airport ID:
Nearby Airports
(U) WABUSH 122.3 NM
CYWK ( WX ) WSW 248°
(U) SCHEFFERVILLE 138.8 NM
CYKL ( WX ) NW 308°
(C) Goose Bay 152.3 NM
CYYR ( WX ) E 96°
(U) HAVRE ST PIERRE 227.6 NM
CYGV ( WX ) S 174°
(C) Rigolet 234.0 NM
CCZ2 E 79°
(C) SEPT ILES 248.3 NM
CYZV ( WX ) SSW 201°
(U) NATASHQUAN 253.1 NM
CYNA SSE 157°
VFR Chart
Flight Planning at SkyVector.com